sensor_id;sensor_type;location;lat;lon;timestamp;temperature;humidity
59847;DHT22;45728;48.788;2.302;2023-04-06T00:01:40;12.00;93.10
59847;DHT22;45728;48.788;2.302;2023-04-06T00:04:07;12.00;93.60
59847;DHT22;45728;48.788;2.302;2023-04-06T00:06:33;12.00;93.80
59847;DHT22;45728;48.788;2.302;2023-04-06T00:09:00;11.90;94.00
59847;DHT22;45728;48.788;2.302;2023-04-06T00:11:26;11.80;94.00
59847;DHT22;45728;48.788;2.302;2023-04-06T00:13:52;11.80;93.90
59847;DHT22;45728;48.788;2.302;2023-04-06T00:16:19;11.80;94.10
59847;DHT22;45728;48.788;2.302;2023-04-06T00:18:46;11.80;93.90
59847;DHT22;45728;48.788;2.302;2023-04-06T00:21:13;11.80;93.80
59847;DHT22;45728;48.788;2.302;2023-04-06T00:23:40;11.80;94.20
59847;DHT22;45728;48.788;2.302;2023-04-06T00:26:06;11.80;94.40
59847;DHT22;45728;48.788;2.302;2023-04-06T00:28:32;11.70;94.80
59847;DHT22;45728;48.788;2.302;2023-04-06T00:30:58;11.80;94.80
59847;DHT22;45728;48.788;2.302;2023-04-06T00:33:24;11.80;95.10
59847;DHT22;45728;48.788;2.302;2023-04-06T00:35:51;11.80;95.20
59847;DHT22;45728;48.788;2.302;2023-04-06T00:38:17;11.80;95.40
59847;DHT22;45728;48.788;2.302;2023-04-06T00:40:44;11.80;95.50
59847;DHT22;45728;48.788;2.302;2023-04-06T00:43:11;11.80;95.50
59847;DHT22;45728;48.788;2.302;2023-04-06T00:45:38;11.80;95.70
59847;DHT22;45728;48.788;2.302;2023-04-06T00:48:06;11.70;96.00
59847;DHT22;45728;48.788;2.302;2023-04-06T00:50:32;11.70;96.00
59847;DHT22;45728;48.788;2.302;2023-04-06T00:52:59;11.70;96.20
59847;DHT22;45728;48.788;2.302;2023-04-06T00:55:26;11.70;96.50
59847;DHT22;45728;48.788;2.302;2023-04-06T00:57:53;11.70;96.40
59847;DHT22;45728;48.788;2.302;2023-04-06T01:00:19;11.70;96.30
59847;DHT22;45728;48.788;2.302;2023-04-06T01:02:45;11.70;96.60
59847;DHT22;45728;48.788;2.302;2023-04-06T01:05:12;11.60;96.90
59847;DHT22;45728;48.788;2.302;2023-04-06T01:07:38;11.60;96.90
59847;DHT22;45728;48.788;2.302;2023-04-06T01:10:04;11.50;97.20
59847;DHT22;45728;48.788;2.302;2023-04-06T01:12:31;11.50;97.30
59847;DHT22;45728;48.788;2.302;2023-04-06T01:14:57;11.50;97.50
59847;DHT22;45728;48.788;2.302;2023-04-06T01:17:23;11.50;97.40
59847;DHT22;45728;48.788;2.302;2023-04-06T01:19:49;11.50;97.70
59847;DHT22;45728;48.788;2.302;2023-04-06T01:22:17;11.50;97.50
59847;DHT22;45728;48.788;2.302;2023-04-06T01:24:43;11.60;97.60
59847;DHT22;45728;48.788;2.302;2023-04-06T01:27:09;11.70;97.20
59847;DHT22;45728;48.788;2.302;2023-04-06T01:29:36;11.70;97.60
59847;DHT22;45728;48.788;2.302;2023-04-06T01:32:02;11.80;97.30
59847;DHT22;45728;48.788;2.302;2023-04-06T01:34:28;11.70;98.00
59847;DHT22;45728;48.788;2.302;2023-04-06T01:36:54;11.60;98.20
59847;DHT22;45728;48.788;2.302;2023-04-06T01:39:21;11.40;98.20
59847;DHT22;45728;48.788;2.302;2023-04-06T01:41:47;11.40;98.30
59847;DHT22;45728;48.788;2.302;2023-04-06T01:44:17;11.30;98.40
59847;DHT22;45728;48.788;2.302;2023-04-06T01:46:44;11.30;98.40
59847;DHT22;45728;48.788;2.302;2023-04-06T01:49:12;11.30;98.50
59847;DHT22;45728;48.788;2.302;2023-04-06T01:51:38;11.40;98.20
59847;DHT22;45728;48.788;2.302;2023-04-06T01:54:05;11.50;98.20
59847;DHT22;45728;48.788;2.302;2023-04-06T01:56:31;11.50;98.50
59847;DHT22;45728;48.788;2.302;2023-04-06T01:58:57;11.50;98.50
59847;DHT22;45728;48.788;2.302;2023-04-06T02:01:23;11.50;98.50
59847;DHT22;45728;48.788;2.302;2023-04-06T02:03:49;11.40;98.80
59847;DHT22;45728;48.788;2.302;2023-04-06T02:06:15;11.50;98.30
59847;DHT22;45728;48.788;2.302;2023-04-06T02:08:41;11.50;98.50
59847;DHT22;45728;48.788;2.302;2023-04-06T02:11:08;11.50;98.50
59847;DHT22;45728;48.788;2.302;2023-04-06T02:13:34;11.50;98.60
59847;DHT22;45728;48.788;2.302;2023-04-06T02:16:00;11.40;98.70
59847;DHT22;45728;48.788;2.302;2023-04-06T02:18:31;11.30;98.60
59847;DHT22;45728;48.788;2.302;2023-04-06T02:20:57;11.40;98.60
59847;DHT22;45728;48.788;2.302;2023-04-06T02:23:23;11.40;98.50
59847;DHT22;45728;48.788;2.302;2023-04-06T02:25:50;11.40;98.70
59847;DHT22;45728;48.788;2.302;2023-04-06T02:28:16;11.40;99.00
59847;DHT22;45728;48.788;2.302;2023-04-06T02:30:42;11.30;99.10
59847;DHT22;45728;48.788;2.302;2023-04-06T02:33:08;11.10;99.60
59847;DHT22;45728;48.788;2.302;2023-04-06T02:35:34;11.10;99.50
59847;DHT22;45728;48.788;2.302;2023-04-06T02:38:00;11.00;99.70
59847;DHT22;45728;48.788;2.302;2023-04-06T02:40:26;11.00;99.90
59847;DHT22;45728;48.788;2.302;2023-04-06T02:42:52;11.10;99.70
59847;DHT22;45728;48.788;2.302;2023-04-06T02:45:18;11.20;99.70
59847;DHT22;45728;48.788;2.302;2023-04-06T02:47:45;11.20;99.70
59847;DHT22;45728;48.788;2.302;2023-04-06T02:50:11;11.30;99.90
59847;DHT22;45728;48.788;2.302;2023-04-06T02:52:37;11.20;99.70
59847;DHT22;45728;48.788;2.302;2023-04-06T02:55:03;11.20;99.60
59847;DHT22;45728;48.788;2.302;2023-04-06T02:57:29;11.20;99.90
59847;DHT22;45728;48.788;2.302;2023-04-06T02:59:56;11.20;99.80
59847;DHT22;45728;48.788;2.302;2023-04-06T03:02:22;11.20;99.90
59847;DHT22;45728;48.788;2.302;2023-04-06T03:04:48;11.30;99.70
59847;DHT22;45728;48.788;2.302;2023-04-06T03:07:14;11.30;99.90
59847;DHT22;45728;48.788;2.302;2023-04-06T03:09:40;11.20;99.90
59847;DHT22;45728;48.788;2.302;2023-04-06T03:12:06;11.10;99.90
59847;DHT22;45728;48.788;2.302;2023-04-06T03:14:32;11.10;99.90
59847;DHT22;45728;48.788;2.302;2023-04-06T03:16:58;11.10;99.90
59847;DHT22;45728;48.788;2.302;2023-04-06T03:19:25;11.10;99.90
59847;DHT22;45728;48.788;2.302;2023-04-06T03:21:51;11.00;99.90
59847;DHT22;45728;48.788;2.302;2023-04-06T03:24:17;11.00;99.90
59847;DHT22;45728;48.788;2.302;2023-04-06T03:26:43;11.10;99.90
59847;DHT22;45728;48.788;2.302;2023-04-06T03:29:09;11.10;99.90
59847;DHT22;45728;48.788;2.302;2023-04-06T03:31:35;11.10;99.90
59847;DHT22;45728;48.788;2.302;2023-04-06T03:34:01;11.00;99.90
59847;DHT22;45728;48.788;2.302;2023-04-06T03:36:27;11.00;99.90
59847;DHT22;45728;48.788;2.302;2023-04-06T03:38:53;11.20;99.90
59847;DHT22;45728;48.788;2.302;2023-04-06T03:41:20;11.20;99.90
59847;DHT22;45728;48.788;2.302;2023-04-06T03:43:46;11.20;99.90
59847;DHT22;45728;48.788;2.302;2023-04-06T03:46:13;11.20;99.90
59847;DHT22;45728;48.788;2.302;2023-04-06T03:48:39;11.10;99.90
59847;DHT22;45728;48.788;2.302;2023-04-06T03:51:05;11.10;99.90
59847;DHT22;45728;48.788;2.302;2023-04-06T03:53:31;11.00;99.90
59847;DHT22;45728;48.788;2.302;2023-04-06T03:55:57;11.00;99.90
59847;DHT22;45728;48.788;2.302;2023-04-06T03:58:23;11.10;99.90
59847;DHT22;45728;48.788;2.302;2023-04-06T04:00:49;11.10;99.90
59847;DHT22;45728;48.788;2.302;2023-04-06T04:03:15;11.10;99.90
59847;DHT22;45728;48.788;2.302;2023-04-06T04:05:42;11.10;99.90
59847;DHT22;45728;48.788;2.302;2023-04-06T04:08:09;11.10;99.90
59847;DHT22;45728;48.788;2.302;2023-04-06T04:10:35;10.80;99.90
59847;DHT22;45728;48.788;2.302;2023-04-06T04:13:01;10.80;99.90
59847;DHT22;45728;48.788;2.302;2023-04-06T04:15:27;10.90;99.90
59847;DHT22;45728;48.788;2.302;2023-04-06T04:17:53;10.90;99.90
59847;DHT22;45728;48.788;2.302;2023-04-06T04:20:19;10.90;99.90
59847;DHT22;45728;48.788;2.302;2023-04-06T04:22:45;10.90;99.90
59847;DHT22;45728;48.788;2.302;2023-04-06T04:25:11;11.00;99.90
59847;DHT22;45728;48.788;2.302;2023-04-06T04:27:37;11.00;99.90
59847;DHT22;45728;48.788;2.302;2023-04-06T04:30:04;11.00;99.90
59847;DHT22;45728;48.788;2.302;2023-04-06T04:32:30;11.10;99.90
59847;DHT22;45728;48.788;2.302;2023-04-06T04:34:56;11.10;99.90
59847;DHT22;45728;48.788;2.302;2023-04-06T04:37:22;11.20;99.90
59847;DHT22;45728;48.788;2.302;2023-04-06T04:39:48;11.10;99.90
59847;DHT22;45728;48.788;2.302;2023-04-06T04:42:14;11.00;99.90
59847;DHT22;45728;48.788;2.302;2023-04-06T04:44:41;11.10;99.90
59847;DHT22;45728;48.788;2.302;2023-04-06T04:47:07;11.10;99.90
59847;DHT22;45728;48.788;2.302;2023-04-06T04:49:33;11.10;99.90
59847;DHT22;45728;48.788;2.302;2023-04-06T04:51:59;11.00;99.90
59847;DHT22;45728;48.788;2.302;2023-04-06T04:54:25;10.90;99.90
59847;DHT22;45728;48.788;2.302;2023-04-06T04:56:52;10.80;99.90
59847;DHT22;45728;48.788;2.302;2023-04-06T04:59:18;10.90;99.90
59847;DHT22;45728;48.788;2.302;2023-04-06T05:01:44;10.90;99.90
59847;DHT22;45728;48.788;2.302;2023-04-06T05:04:10;11.00;99.90
59847;DHT22;45728;48.788;2.302;2023-04-06T05:06:36;10.90;99.90
59847;DHT22;45728;48.788;2.302;2023-04-06T05:09:02;10.80;99.90
59847;DHT22;45728;48.788;2.302;2023-04-06T05:11:28;10.80;99.90
59847;DHT22;45728;48.788;2.302;2023-04-06T05:13:56;10.80;99.90
59847;DHT22;45728;48.788;2.302;2023-04-06T05:16:22;10.80;99.90
59847;DHT22;45728;48.788;2.302;2023-04-06T05:18:48;10.80;99.90
59847;DHT22;45728;48.788;2.302;2023-04-06T05:21:14;10.80;99.90
59847;DHT22;45728;48.788;2.302;2023-04-06T05:23:40;10.80;99.90
59847;DHT22;45728;48.788;2.302;2023-04-06T05:26:06;10.80;99.90
59847;DHT22;45728;48.788;2.302;2023-04-06T05:28:33;10.80;99.90
59847;DHT22;45728;48.788;2.302;2023-04-06T05:30:59;10.80;99.90
59847;DHT22;45728;48.788;2.302;2023-04-06T05:33:25;10.70;99.90
59847;DHT22;45728;48.788;2.302;2023-04-06T05:35:52;10.80;99.90
59847;DHT22;45728;48.788;2.302;2023-04-06T05:38:18;10.70;99.90
59847;DHT22;45728;48.788;2.302;2023-04-06T05:40:44;10.70;99.90
59847;DHT22;45728;48.788;2.302;2023-04-06T05:43:10;10.80;99.90
59847;DHT22;45728;48.788;2.302;2023-04-06T05:45:36;10.80;99.90
59847;DHT22;45728;48.788;2.302;2023-04-06T05:48:02;10.80;99.90
59847;DHT22;45728;48.788;2.302;2023-04-06T05:50:29;10.80;99.90
59847;DHT22;45728;48.788;2.302;2023-04-06T05:52:55;10.70;99.90
59847;DHT22;45728;48.788;2.302;2023-04-06T05:55:21;10.80;99.90
59847;DHT22;45728;48.788;2.302;2023-04-06T05:57:47;10.70;99.90
59847;DHT22;45728;48.788;2.302;2023-04-06T06:00:13;10.80;99.90
59847;DHT22;45728;48.788;2.302;2023-04-06T06:02:40;10.70;99.90
59847;DHT22;45728;48.788;2.302;2023-04-06T06:05:08;10.70;99.90
59847;DHT22;45728;48.788;2.302;2023-04-06T06:07:36;10.70;99.90
59847;DHT22;45728;48.788;2.302;2023-04-06T06:10:02;10.70;99.90
59847;DHT22;45728;48.788;2.302;2023-04-06T06:12:28;10.70;99.90
59847;DHT22;45728;48.788;2.302;2023-04-06T06:14:54;10.70;99.90
59847;DHT22;45728;48.788;2.302;2023-04-06T06:17:21;10.80;99.90
59847;DHT22;45728;48.788;2.302;2023-04-06T06:19:47;10.70;99.90
59847;DHT22;45728;48.788;2.302;2023-04-06T06:22:13;10.70;99.90
59847;DHT22;45728;48.788;2.302;2023-04-06T06:24:39;10.80;99.90
59847;DHT22;45728;48.788;2.302;2023-04-06T06:27:05;10.70;99.90
59847;DHT22;45728;48.788;2.302;2023-04-06T06:29:33;10.70;99.90
59847;DHT22;45728;48.788;2.302;2023-04-06T06:31:59;10.80;99.90
59847;DHT22;45728;48.788;2.302;2023-04-06T06:34:25;10.80;99.90
59847;DHT22;45728;48.788;2.302;2023-04-06T06:36:52;10.80;99.90
59847;DHT22;45728;48.788;2.302;2023-04-06T06:39:20;10.90;99.90
59847;DHT22;45728;48.788;2.302;2023-04-06T06:41:46;10.90;99.90
59847;DHT22;45728;48.788;2.302;2023-04-06T06:44:12;11.00;99.90
59847;DHT22;45728;48.788;2.302;2023-04-06T06:46:38;10.90;99.90
59847;DHT22;45728;48.788;2.302;2023-04-06T06:49:04;10.70;99.90
59847;DHT22;45728;48.788;2.302;2023-04-06T06:51:31;10.60;99.90
59847;DHT22;45728;48.788;2.302;2023-04-06T06:53:57;10.40;99.90
59847;DHT22;45728;48.788;2.302;2023-04-06T06:56:23;10.40;99.90
59847;DHT22;45728;48.788;2.302;2023-04-06T06:58:49;10.50;99.90
59847;DHT22;45728;48.788;2.302;2023-04-06T07:01:15;10.50;99.90
59847;DHT22;45728;48.788;2.302;2023-04-06T07:03:41;10.60;99.90
59847;DHT22;45728;48.788;2.302;2023-04-06T07:06:07;10.50;99.90
59847;DHT22;45728;48.788;2.302;2023-04-06T07:08:33;10.40;99.90
59847;DHT22;45728;48.788;2.302;2023-04-06T07:11:00;10.40;99.90
59847;DHT22;45728;48.788;2.302;2023-04-06T07:13:26;10.50;99.90
59847;DHT22;45728;48.788;2.302;2023-04-06T07:15:53;10.50;99.90
59847;DHT22;45728;48.788;2.302;2023-04-06T07:18:20;10.40;99.90
59847;DHT22;45728;48.788;2.302;2023-04-06T07:20:46;10.40;99.90
59847;DHT22;45728;48.788;2.302;2023-04-06T07:23:31;10.40;99.90
59847;DHT22;45728;48.788;2.302;2023-04-06T07:25:57;10.30;99.90
59847;DHT22;45728;48.788;2.302;2023-04-06T07:28:23;10.40;99.90
59847;DHT22;45728;48.788;2.302;2023-04-06T07:30:49;10.40;99.90
59847;DHT22;45728;48.788;2.302;2023-04-06T07:33:16;10.50;99.90
59847;DHT22;45728;48.788;2.302;2023-04-06T07:35:42;10.40;99.90
59847;DHT22;45728;48.788;2.302;2023-04-06T07:38:08;10.40;99.90
59847;DHT22;45728;48.788;2.302;2023-04-06T07:40:34;10.40;99.90
59847;DHT22;45728;48.788;2.302;2023-04-06T07:43:01;10.40;99.90
59847;DHT22;45728;48.788;2.302;2023-04-06T07:45:28;10.40;99.90
59847;DHT22;45728;48.788;2.302;2023-04-06T07:47:54;10.50;99.90
59847;DHT22;45728;48.788;2.302;2023-04-06T07:50:20;10.40;99.90
59847;DHT22;45728;48.788;2.302;2023-04-06T07:52:46;10.40;99.90
59847;DHT22;45728;48.788;2.302;2023-04-06T07:55:12;10.40;99.90
59847;DHT22;45728;48.788;2.302;2023-04-06T07:57:38;10.50;99.90
59847;DHT22;45728;48.788;2.302;2023-04-06T08:00:05;10.40;99.90
59847;DHT22;45728;48.788;2.302;2023-04-06T08:02:32;10.40;99.90
59847;DHT22;45728;48.788;2.302;2023-04-06T08:04:58;10.40;99.90
59847;DHT22;45728;48.788;2.302;2023-04-06T08:07:24;10.50;99.90
59847;DHT22;45728;48.788;2.302;2023-04-06T08:09:51;10.60;99.90
59847;DHT22;45728;48.788;2.302;2023-04-06T08:12:17;10.50;99.90
59847;DHT22;45728;48.788;2.302;2023-04-06T08:14:43;10.50;99.90
59847;DHT22;45728;48.788;2.302;2023-04-06T08:17:09;10.50;99.90
59847;DHT22;45728;48.788;2.302;2023-04-06T08:19:36;10.60;99.90
59847;DHT22;45728;48.788;2.302;2023-04-06T08:22:03;10.80;99.90
59847;DHT22;45728;48.788;2.302;2023-04-06T08:24:29;10.90;99.90
59847;DHT22;45728;48.788;2.302;2023-04-06T08:26:56;10.80;99.90
59847;DHT22;45728;48.788;2.302;2023-04-06T08:29:22;10.90;99.90
59847;DHT22;45728;48.788;2.302;2023-04-06T08:31:48;10.90;99.90
59847;DHT22;45728;48.788;2.302;2023-04-06T08:34:15;10.80;99.90
59847;DHT22;45728;48.788;2.302;2023-04-06T08:36:41;10.70;99.90
59847;DHT22;45728;48.788;2.302;2023-04-06T08:39:07;10.70;99.90
59847;DHT22;45728;48.788;2.302;2023-04-06T08:41:52;10.80;99.90
59847;DHT22;45728;48.788;2.302;2023-04-06T08:44:19;10.80;99.90
59847;DHT22;45728;48.788;2.302;2023-04-06T08:46:45;10.90;99.90
59847;DHT22;45728;48.788;2.302;2023-04-06T08:49:12;10.80;99.90
59847;DHT22;45728;48.788;2.302;2023-04-06T08:51:40;10.70;99.90
59847;DHT22;45728;48.788;2.302;2023-04-06T08:54:10;10.80;99.90
59847;DHT22;45728;48.788;2.302;2023-04-06T08:56:39;10.70;99.90
59847;DHT22;45728;48.788;2.302;2023-04-06T08:59:06;10.70;99.90
59847;DHT22;45728;48.788;2.302;2023-04-06T09:01:36;10.60;99.90
59847;DHT22;45728;48.788;2.302;2023-04-06T09:04:03;10.50;99.90
59847;DHT22;45728;48.788;2.302;2023-04-06T09:06:34;10.60;99.90
59847;DHT22;45728;48.788;2.302;2023-04-06T09:09:02;10.50;99.90
59847;DHT22;45728;48.788;2.302;2023-04-06T09:11:40;10.30;99.90
59847;DHT22;45728;48.788;2.302;2023-04-06T09:14:06;10.50;99.90
59847;DHT22;45728;48.788;2.302;2023-04-06T09:16:39;10.60;99.90
59847;DHT22;45728;48.788;2.302;2023-04-06T09:19:06;10.80;99.90
59847;DHT22;45728;48.788;2.302;2023-04-06T09:21:32;10.80;99.90
59847;DHT22;45728;48.788;2.302;2023-04-06T09:24:00;10.70;99.90
59847;DHT22;45728;48.788;2.302;2023-04-06T09:26:26;10.60;99.90
59847;DHT22;45728;48.788;2.302;2023-04-06T09:28:54;10.70;99.90
59847;DHT22;45728;48.788;2.302;2023-04-06T09:31:26;10.60;99.90
59847;DHT22;45728;48.788;2.302;2023-04-06T09:33:53;10.60;99.90
59847;DHT22;45728;48.788;2.302;2023-04-06T09:36:20;10.60;99.90
59847;DHT22;45728;48.788;2.302;2023-04-06T09:41:29;10.60;99.90
59847;DHT22;45728;48.788;2.302;2023-04-06T09:46:32;10.70;99.90
59847;DHT22;45728;48.788;2.302;2023-04-06T09:49:01;10.70;99.90
59847;DHT22;45728;48.788;2.302;2023-04-06T09:51:36;10.80;99.90
59847;DHT22;45728;48.788;2.302;2023-04-06T09:54:03;10.80;99.90
59847;DHT22;45728;48.788;2.302;2023-04-06T09:56:37;11.00;99.90
59847;DHT22;45728;48.788;2.302;2023-04-06T09:59:09;10.90;99.90
59847;DHT22;45728;48.788;2.302;2023-04-06T10:01:39;11.00;99.90
59847;DHT22;45728;48.788;2.302;2023-04-06T10:04:13;11.00;99.90
59847;DHT22;45728;48.788;2.302;2023-04-06T10:06:45;10.90;99.90
59847;DHT22;45728;48.788;2.302;2023-04-06T10:09:14;10.90;99.90
59847;DHT22;45728;48.788;2.302;2023-04-06T10:11:41;10.80;99.90
59847;DHT22;45728;48.788;2.302;2023-04-06T10:14:07;10.70;99.90
59847;DHT22;45728;48.788;2.302;2023-04-06T10:16:34;10.70;99.90
59847;DHT22;45728;48.788;2.302;2023-04-06T10:19:06;10.70;99.90
59847;DHT22;45728;48.788;2.302;2023-04-06T10:21:36;10.80;99.90
59847;DHT22;45728;48.788;2.302;2023-04-06T10:24:08;10.80;99.90
59847;DHT22;45728;48.788;2.302;2023-04-06T10:26:38;10.90;99.90
59847;DHT22;45728;48.788;2.302;2023-04-06T10:29:04;10.90;99.90
59847;DHT22;45728;48.788;2.302;2023-04-06T10:31:31;10.90;99.90
59847;DHT22;45728;48.788;2.302;2023-04-06T10:33:59;11.00;99.90
59847;DHT22;45728;48.788;2.302;2023-04-06T10:36:35;11.10;99.90
59847;DHT22;45728;48.788;2.302;2023-04-06T10:39:04;11.10;99.90
59847;DHT22;45728;48.788;2.302;2023-04-06T10:41:56;11.20;99.90
59847;DHT22;45728;48.788;2.302;2023-04-06T10:44:42;11.40;99.90
59847;DHT22;45728;48.788;2.302;2023-04-06T10:47:16;11.30;99.90
59847;DHT22;45728;48.788;2.302;2023-04-06T10:49:43;11.30;99.90
59847;DHT22;45728;48.788;2.302;2023-04-06T10:52:10;11.20;99.90
59847;DHT22;45728;48.788;2.302;2023-04-06T10:54:42;11.20;99.90
59847;DHT22;45728;48.788;2.302;2023-04-06T10:57:12;11.30;99.90
59847;DHT22;45728;48.788;2.302;2023-04-06T10:59:42;11.50;99.90
59847;DHT22;45728;48.788;2.302;2023-04-06T11:02:10;11.80;99.90
59847;DHT22;45728;48.788;2.302;2023-04-06T11:04:54;12.20;99.90
59847;DHT22;45728;48.788;2.302;2023-04-06T11:07:27;12.50;99.90
59847;DHT22;45728;48.788;2.302;2023-04-06T11:09:55;12.10;99.90
59847;DHT22;45728;48.788;2.302;2023-04-06T11:12:30;12.10;99.90
59847;DHT22;45728;48.788;2.302;2023-04-06T11:14:58;12.00;99.90
59847;DHT22;45728;48.788;2.302;2023-04-06T11:17:35;11.90;99.90
59847;DHT22;45728;48.788;2.302;2023-04-06T11:20:03;11.90;99.90
59847;DHT22;45728;48.788;2.302;2023-04-06T11:22:30;12.00;99.90
59847;DHT22;45728;48.788;2.302;2023-04-06T11:25:06;12.20;99.90
59847;DHT22;45728;48.788;2.302;2023-04-06T11:27:36;12.70;99.90
59847;DHT22;45728;48.788;2.302;2023-04-06T11:30:03;13.10;99.90
59847;DHT22;45728;48.788;2.302;2023-04-06T11:32:38;13.30;99.90
59847;DHT22;45728;48.788;2.302;2023-04-06T11:35:05;13.40;99.90
59847;DHT22;45728;48.788;2.302;2023-04-06T11:37:31;13.90;99.90
59847;DHT22;45728;48.788;2.302;2023-04-06T11:39:58;14.00;99.90
59847;DHT22;45728;48.788;2.302;2023-04-06T11:42:28;14.10;99.90
59847;DHT22;45728;48.788;2.302;2023-04-06T11:44:56;14.10;99.90
59847;DHT22;45728;48.788;2.302;2023-04-06T11:47:36;13.70;99.90
59847;DHT22;45728;48.788;2.302;2023-04-06T11:50:11;13.70;99.90
59847;DHT22;45728;48.788;2.302;2023-04-06T11:52:39;14.00;99.90
59847;DHT22;45728;48.788;2.302;2023-04-06T11:55:16;13.90;99.90
59847;DHT22;45728;48.788;2.302;2023-04-06T11:57:44;13.90;99.90
59847;DHT22;45728;48.788;2.302;2023-04-06T12:00:11;14.00;99.90
59847;DHT22;45728;48.788;2.302;2023-04-06T12:02:38;13.90;99.90
59847;DHT22;45728;48.788;2.302;2023-04-06T12:05:05;14.00;99.90
59847;DHT22;45728;48.788;2.302;2023-04-06T12:07:33;14.00;99.90
59847;DHT22;45728;48.788;2.302;2023-04-06T12:10:00;13.80;99.90
59847;DHT22;45728;48.788;2.302;2023-04-06T12:12:27;13.80;99.90
59847;DHT22;45728;48.788;2.302;2023-04-06T12:14:53;13.80;99.90
59847;DHT22;45728;48.788;2.302;2023-04-06T12:17:19;13.80;99.90
59847;DHT22;45728;48.788;2.302;2023-04-06T12:19:46;13.60;99.90
59847;DHT22;45728;48.788;2.302;2023-04-06T12:22:12;13.80;99.90
59847;DHT22;45728;48.788;2.302;2023-04-06T12:24:38;14.10;99.90
59847;DHT22;45728;48.788;2.302;2023-04-06T12:27:04;14.50;99.90
59847;DHT22;45728;48.788;2.302;2023-04-06T12:29:30;14.80;99.90
59847;DHT22;45728;48.788;2.302;2023-04-06T12:31:57;14.70;99.90
59847;DHT22;45728;48.788;2.302;2023-04-06T12:34:23;14.60;99.90
59847;DHT22;45728;48.788;2.302;2023-04-06T12:36:49;14.50;99.90
59847;DHT22;45728;48.788;2.302;2023-04-06T12:39:15;14.50;99.90
59847;DHT22;45728;48.788;2.302;2023-04-06T12:41:42;14.60;99.90
59847;DHT22;45728;48.788;2.302;2023-04-06T12:44:08;14.40;99.90
59847;DHT22;45728;48.788;2.302;2023-04-06T12:46:34;14.60;99.90
59847;DHT22;45728;48.788;2.302;2023-04-06T12:49:01;14.60;99.90
59847;DHT22;45728;48.788;2.302;2023-04-06T12:51:30;14.60;99.90
59847;DHT22;45728;48.788;2.302;2023-04-06T12:53:57;14.70;99.90
59847;DHT22;45728;48.788;2.302;2023-04-06T12:56:23;14.70;99.90
59847;DHT22;45728;48.788;2.302;2023-04-06T12:58:51;14.40;99.90
59847;DHT22;45728;48.788;2.302;2023-04-06T13:01:17;14.60;99.90
59847;DHT22;45728;48.788;2.302;2023-04-06T13:03:44;14.50;99.90
59847;DHT22;45728;48.788;2.302;2023-04-06T13:06:10;14.50;99.90
59847;DHT22;45728;48.788;2.302;2023-04-06T13:08:38;14.70;99.90
59847;DHT22;45728;48.788;2.302;2023-04-06T13:11:05;14.90;99.90
59847;DHT22;45728;48.788;2.302;2023-04-06T13:13:33;15.00;99.90
59847;DHT22;45728;48.788;2.302;2023-04-06T13:16:06;15.00;99.90
59847;DHT22;45728;48.788;2.302;2023-04-06T13:18:33;15.00;99.90
59847;DHT22;45728;48.788;2.302;2023-04-06T13:21:00;14.90;99.90
59847;DHT22;45728;48.788;2.302;2023-04-06T13:23:26;14.90;99.90
59847;DHT22;45728;48.788;2.302;2023-04-06T13:26:04;14.90;99.90
59847;DHT22;45728;48.788;2.302;2023-04-06T13:28:31;14.80;99.90
59847;DHT22;45728;48.788;2.302;2023-04-06T13:30:58;14.90;99.90
59847;DHT22;45728;48.788;2.302;2023-04-06T13:33:25;15.10;99.90
59847;DHT22;45728;48.788;2.302;2023-04-06T13:35:51;15.10;99.90
59847;DHT22;45728;48.788;2.302;2023-04-06T13:38:18;15.40;99.90
59847;DHT22;45728;48.788;2.302;2023-04-06T13:40:44;15.20;99.90
59847;DHT22;45728;48.788;2.302;2023-04-06T13:43:10;15.00;99.90
59847;DHT22;45728;48.788;2.302;2023-04-06T13:45:37;15.00;99.90
59847;DHT22;45728;48.788;2.302;2023-04-06T13:48:04;14.90;99.90
59847;DHT22;45728;48.788;2.302;2023-04-06T13:50:30;14.90;99.90
59847;DHT22;45728;48.788;2.302;2023-04-06T13:52:56;14.70;99.90
59847;DHT22;45728;48.788;2.302;2023-04-06T13:55:22;14.50;99.90
59847;DHT22;45728;48.788;2.302;2023-04-06T13:57:51;14.40;99.90
59847;DHT22;45728;48.788;2.302;2023-04-06T14:00:18;14.40;99.90
59847;DHT22;45728;48.788;2.302;2023-04-06T14:02:45;14.50;99.90
59847;DHT22;45728;48.788;2.302;2023-04-06T14:05:11;14.60;99.90
59847;DHT22;45728;48.788;2.302;2023-04-06T14:07:37;14.70;99.90
59847;DHT22;45728;48.788;2.302;2023-04-06T14:10:03;14.80;99.90
59847;DHT22;45728;48.788;2.302;2023-04-06T14:12:30;14.80;99.90
59847;DHT22;45728;48.788;2.302;2023-04-06T14:14:57;14.90;99.90
59847;DHT22;45728;48.788;2.302;2023-04-06T14:17:23;14.80;99.90
59847;DHT22;45728;48.788;2.302;2023-04-06T14:19:49;14.80;99.90
59847;DHT22;45728;48.788;2.302;2023-04-06T14:22:17;14.80;99.90
59847;DHT22;45728;48.788;2.302;2023-04-06T14:24:43;14.90;99.90
59847;DHT22;45728;48.788;2.302;2023-04-06T14:27:09;15.00;99.90
59847;DHT22;45728;48.788;2.302;2023-04-06T14:29:36;15.00;99.90
59847;DHT22;45728;48.788;2.302;2023-04-06T14:32:02;14.80;99.90
59847;DHT22;45728;48.788;2.302;2023-04-06T14:34:28;14.80;99.90
59847;DHT22;45728;48.788;2.302;2023-04-06T14:36:54;14.90;99.90
59847;DHT22;45728;48.788;2.302;2023-04-06T14:39:21;15.00;99.90
59847;DHT22;45728;48.788;2.302;2023-04-06T14:41:47;15.00;99.90
59847;DHT22;45728;48.788;2.302;2023-04-06T14:44:16;15.00;99.90
59847;DHT22;45728;48.788;2.302;2023-04-06T14:46:42;14.80;99.90
59847;DHT22;45728;48.788;2.302;2023-04-06T14:49:08;14.80;99.90
59847;DHT22;45728;48.788;2.302;2023-04-06T14:51:35;14.80;99.90
59847;DHT22;45728;48.788;2.302;2023-04-06T14:54:02;14.90;99.90
59847;DHT22;45728;48.788;2.302;2023-04-06T14:56:31;15.00;99.90
59847;DHT22;45728;48.788;2.302;2023-04-06T14:58:58;15.00;99.90
59847;DHT22;45728;48.788;2.302;2023-04-06T15:01:24;15.10;99.90
59847;DHT22;45728;48.788;2.302;2023-04-06T15:03:50;15.30;99.90
59847;DHT22;45728;48.788;2.302;2023-04-06T15:06:17;15.40;99.90
59847;DHT22;45728;48.788;2.302;2023-04-06T15:08:45;15.30;99.90
59847;DHT22;45728;48.788;2.302;2023-04-06T15:11:12;15.30;99.90
59847;DHT22;45728;48.788;2.302;2023-04-06T15:13:39;15.10;99.90
59847;DHT22;45728;48.788;2.302;2023-04-06T15:16:06;15.10;99.90
59847;DHT22;45728;48.788;2.302;2023-04-06T15:18:33;15.00;99.90
59847;DHT22;45728;48.788;2.302;2023-04-06T15:20:59;15.00;99.90
59847;DHT22;45728;48.788;2.302;2023-04-06T15:23:26;15.10;99.90
59847;DHT22;45728;48.788;2.302;2023-04-06T15:25:56;15.30;99.90
59847;DHT22;45728;48.788;2.302;2023-04-06T15:28:22;15.60;99.90
59847;DHT22;45728;48.788;2.302;2023-04-06T15:30:48;15.80;99.90
59847;DHT22;45728;48.788;2.302;2023-04-06T15:33:14;15.90;99.90
59847;DHT22;45728;48.788;2.302;2023-04-06T15:35:40;15.70;99.90